createdAt,value
2018-02-24T00:01:30.551Z,58.27
2018-02-24T00:03:58.059Z,41.90
2018-02-24T00:06:25.511Z,41.37
2018-02-24T00:08:52.953Z,41.20
2018-02-24T00:11:20.391Z,43.47
2018-02-24T00:13:47.847Z,44.35
2018-02-24T00:16:15.286Z,40.70
2018-02-24T00:18:42.767Z,41.20
2018-02-24T00:21:10.214Z,38.67
2018-02-24T00:23:37.667Z,46.03
2018-02-24T00:26:05.148Z,46.67
2018-02-24T00:28:32.636Z,41.53
2018-02-24T00:31:00.071Z,44.40
2018-02-24T00:33:27.524Z,39.57
2018-02-24T00:35:54.974Z,39.73
2018-02-24T00:38:22.437Z,46.13
2018-02-24T00:40:49.870Z,46.27
2018-02-24T00:43:17.340Z,34.50
2018-02-24T00:45:44.777Z,42.30
2018-02-24T00:48:12.209Z,43.27
2018-02-24T00:50:39.663Z,41.53
2018-02-24T00:53:07.112Z,40.07
2018-02-24T00:55:34.556Z,36.17
2018-02-24T00:58:02.012Z,41.07
2018-02-24T01:00:29.479Z,35.70
2018-02-24T01:02:57.063Z,39.22
2018-02-24T01:05:24.512Z,32.97
2018-02-24T01:07:51.955Z,41.03
2018-02-24T01:10:19.482Z,37.30
2018-02-24T01:12:46.937Z,38.93
2018-02-24T01:15:14.371Z,35.30
2018-02-24T01:17:41.802Z,43.37
2018-02-24T01:20:09.243Z,40.23
2018-02-24T01:22:36.687Z,44.73
2018-02-24T01:25:04.127Z,42.40
2018-02-24T01:27:31.583Z,46.77
2018-02-24T01:29:59.027Z,42.03
2018-02-24T01:32:26.464Z,37.17
2018-02-24T01:34:53.918Z,42.97
2018-02-24T01:37:21.410Z,43.23
2018-02-24T01:39:48.888Z,43.17
2018-02-24T01:42:16.404Z,41.57
2018-02-24T01:44:43.848Z,42.77
2018-02-24T01:47:11.284Z,41.87
2018-02-24T01:49:38.729Z,42.43
2018-02-24T01:52:06.184Z,40.80
2018-02-24T01:54:33.626Z,49.43
2018-02-24T01:57:01.457Z,45.25
2018-02-24T01:59:28.923Z,41.27
2018-02-24T02:01:56.367Z,40.70
2018-02-24T02:04:23.831Z,39.70
2018-02-24T02:06:51.287Z,48.30
2018-02-24T02:09:18.772Z,44.30
2018-02-24T02:11:46.230Z,45.30
2018-02-24T02:14:13.681Z,49.60
2018-02-24T02:16:41.138Z,41.40
2018-02-24T02:19:08.582Z,43.50
2018-02-24T02:21:36.022Z,42.80
2018-02-24T02:24:03.458Z,49.43
2018-02-24T02:26:30.917Z,42.03
2018-02-24T02:28:58.355Z,46.93
2018-02-24T02:31:25.809Z,39.23
2018-02-24T02:33:58.268Z,47.80
2018-02-24T02:36:25.720Z,42.17
2018-02-24T02:38:53.279Z,37.27
2018-02-24T02:41:20.735Z,49.83
2018-02-24T02:43:48.167Z,46.90
2018-02-24T02:46:15.612Z,49.73
2018-02-24T02:48:43.071Z,54.93
2018-02-24T02:51:10.568Z,40.07
2018-02-24T02:53:38.020Z,43.13
2018-02-24T02:56:05.473Z,46.00
2018-02-24T02:58:32.933Z,43.20
2018-02-24T03:01:00.384Z,49.23
2018-02-24T03:03:27.837Z,48.00
2018-02-24T03:05:55.276Z,44.80
2018-02-24T03:08:22.717Z,48.30
2018-02-24T03:10:50.226Z,43.90
2018-02-24T03:13:18.295Z,46.28
2018-02-24T03:15:45.729Z,49.30
2018-02-24T03:18:13.175Z,42.43
2018-02-24T03:20:40.619Z,39.90
2018-02-24T03:23:08.123Z,48.93
2018-02-24T03:25:35.682Z,43.47
2018-02-24T03:28:03.147Z,49.43
2018-02-24T03:30:30.595Z,47.30
2018-02-24T03:32:58.046Z,50.57
2018-02-24T03:35:25.484Z,43.20
2018-02-24T03:37:52.980Z,43.97
2018-02-24T03:40:20.422Z,46.17
2018-02-24T03:42:47.861Z,43.00
2018-02-24T03:45:15.305Z,45.80
2018-02-24T03:47:42.955Z,42.63
2018-02-24T03:50:10.388Z,33.63
2018-02-24T03:52:37.833Z,40.70
2018-02-24T03:55:05.284Z,37.97
2018-02-24T03:57:32.736Z,41.70
2018-02-24T04:00:00.175Z,44.70
2018-02-24T04:02:27.641Z,40.30
2018-02-24T04:04:55.088Z,45.20
2018-02-24T04:07:22.527Z,43.60
2018-02-24T04:09:50.089Z,41.40
2018-02-24T04:12:17.829Z,39.17
2018-02-24T04:14:45.290Z,37.00
2018-02-24T04:17:12.743Z,45.10
2018-02-24T04:19:40.205Z,51.87
2018-02-24T04:22:07.639Z,49.50
2018-02-24T04:24:35.090Z,43.00
2018-02-24T04:27:02.530Z,42.67
2018-02-24T04:29:29.963Z,43.73
2018-02-24T04:31:57.411Z,39.53
2018-02-24T04:34:24.850Z,43.87
2018-02-24T04:36:52.290Z,39.90
2018-02-24T04:39:19.744Z,52.63
2018-02-24T04:41:47.176Z,46.70
2018-02-24T04:44:14.640Z,45.73
2018-02-24T04:46:42.192Z,43.87
2018-02-24T04:49:09.636Z,39.63
2018-02-24T04:51:37.084Z,41.80
2018-02-24T04:54:04.532Z,41.90
2018-02-24T04:56:31.971Z,42.73
2018-02-24T04:58:59.408Z,40.87
2018-02-24T05:01:26.938Z,41.33
2018-02-24T05:03:54.372Z,44.65
2018-02-24T05:06:22.623Z,43.53
2018-02-24T05:08:50.076Z,45.93
2018-02-24T05:11:17.527Z,43.83
2018-02-24T05:13:45.127Z,50.40
2018-02-24T05:16:12.568Z,39.37
2018-02-24T05:18:40.023Z,44.63
2018-02-24T05:21:07.459Z,38.43
2018-02-24T05:23:34.929Z,40.60
2018-02-24T05:26:02.441Z,38.77
2018-02-24T05:28:29.880Z,38.33
2018-02-24T05:30:57.327Z,45.17
2018-02-24T05:33:24.812Z,37.93
2018-02-24T05:35:52.253Z,37.60
2018-02-24T05:38:20.440Z,44.43
2018-02-24T05:40:47.878Z,38.93
2018-02-24T05:43:15.357Z,45.33
2018-02-24T05:45:42.818Z,38.37
2018-02-24T05:48:10.260Z,40.57
2018-02-24T05:50:37.696Z,31.77
2018-02-24T05:53:05.144Z,38.73
2018-02-24T05:55:32.644Z,38.30
2018-02-24T05:58:00.168Z,39.07
2018-02-24T06:00:27.626Z,45.13
2018-02-24T06:02:55.078Z,36.93
2018-02-24T06:05:22.624Z,42.03
2018-02-24T06:07:50.111Z,40.27
2018-02-24T06:10:17.547Z,52.47
2018-02-24T06:12:45.003Z,40.40
2018-02-24T06:15:12.460Z,36.80
2018-02-24T06:17:39.902Z,80.20
2018-02-24T06:20:07.389Z,46.47
2018-02-24T06:22:34.833Z,38.58
2018-02-24T06:25:02.267Z,39.03
2018-02-24T06:27:29.772Z,37.93
2018-02-24T06:29:57.216Z,38.67
2018-02-24T06:32:24.652Z,38.17
2018-02-24T06:34:52.128Z,40.60
2018-02-24T06:37:19.589Z,38.50
2018-02-24T06:39:47.022Z,35.10
2018-02-24T06:42:14.458Z,33.20
2018-02-24T06:44:41.913Z,38.27
2018-02-24T06:47:09.346Z,37.60
2018-02-24T06:49:36.914Z,37.43
2018-02-24T06:52:04.369Z,45.47
2018-02-24T06:54:31.823Z,37.70
2018-02-24T06:56:59.321Z,42.23
2018-02-24T06:59:26.783Z,37.00
2018-02-24T07:01:54.273Z,41.33
2018-02-24T07:04:21.723Z,38.03
2018-02-24T07:11:43.130Z,40.12
2018-02-24T07:14:10.576Z,46.03
2018-02-24T07:16:38.015Z,40.23
2018-02-24T07:19:05.465Z,38.60
2018-02-24T07:21:32.935Z,41.47
2018-02-24T07:24:00.398Z,43.60
2018-02-24T07:26:27.866Z,39.50
2018-02-24T07:28:55.420Z,37.20
2018-02-24T07:31:22.854Z,41.13
2018-02-24T07:33:50.295Z,33.90
2018-02-24T07:36:17.790Z,36.17
2018-02-24T07:38:45.240Z,38.93
2018-02-24T07:41:12.688Z,35.10
2018-02-24T07:43:40.160Z,34.87
2018-02-24T07:46:07.612Z,43.83
2018-02-24T07:48:35.051Z,35.70
2018-02-24T07:51:02.520Z,34.83
2018-02-24T07:53:30.360Z,33.30
2018-02-24T07:55:57.820Z,32.57
2018-02-24T07:58:25.314Z,35.60
2018-02-24T08:00:52.766Z,38.93
2018-02-24T08:03:20.228Z,36.40
2018-02-24T08:05:47.679Z,32.97
2018-02-24T08:08:15.115Z,32.93
2018-02-24T08:10:42.595Z,32.63
2018-02-24T08:13:10.055Z,35.43
2018-02-24T08:15:37.651Z,36.47
2018-02-24T08:18:05.174Z,28.73
2018-02-24T08:20:32.635Z,32.07
2018-02-24T08:23:00.091Z,32.57
2018-02-24T08:25:27.535Z,34.43
2018-02-24T08:27:54.990Z,31.60
2018-02-24T08:30:22.437Z,32.07
2018-02-24T08:32:49.953Z,33.97
2018-02-24T08:35:17.386Z,31.73
2018-02-24T08:37:44.912Z,32.90
2018-02-24T08:40:12.358Z,29.87
2018-02-24T08:42:39.814Z,32.70
2018-02-24T08:45:07.254Z,23.73
2018-02-24T08:47:34.703Z,26.03
2018-02-24T08:50:02.224Z,31.43
2018-02-24T08:52:29.668Z,29.70
2018-02-24T08:54:57.114Z,29.77
2018-02-24T08:57:24.564Z,34.60
2018-02-24T08:59:52.003Z,29.70
2018-02-24T09:02:19.447Z,29.17
2018-02-24T09:04:46.906Z,31.30
2018-02-24T09:07:14.351Z,29.90
2018-02-24T09:09:41.797Z,26.37
2018-02-24T09:12:09.251Z,29.10
2018-02-24T09:14:36.687Z,24.37
2018-02-24T09:17:04.122Z,26.60
2018-02-24T09:19:31.725Z,26.40
2018-02-24T09:21:59.174Z,34.17
2018-02-24T09:24:26.621Z,31.37
2018-02-24T09:26:54.058Z,29.37
2018-02-24T09:29:21.501Z,24.47
2018-02-24T09:31:48.942Z,27.60
2018-02-24T09:34:16.399Z,25.03
2018-02-24T09:36:43.831Z,24.43
2018-02-24T09:39:11.384Z,24.80
2018-02-24T09:41:38.941Z,30.60
2018-02-24T09:44:06.382Z,25.37
2018-02-24T09:46:33.849Z,24.53
2018-02-24T09:49:01.301Z,28.03
2018-02-24T09:51:29.751Z,27.80
2018-02-24T09:53:57.216Z,31.60
2018-02-24T09:56:24.701Z,29.10
2018-02-24T09:58:52.140Z,24.77
2018-02-24T10:01:19.619Z,25.30
2018-02-24T10:03:47.069Z,25.07
2018-02-24T10:06:14.508Z,24.10
2018-02-24T10:08:41.992Z,27.47
2018-02-24T10:11:09.410Z,28.20
2018-02-24T10:13:36.906Z,23.77
2018-02-24T10:16:04.336Z,28.80
2018-02-24T10:18:31.815Z,28.57
2018-02-24T10:20:59.890Z,27.00
2018-02-24T10:23:27.323Z,25.90
2018-02-24T10:25:54.774Z,23.23
2018-02-24T10:28:22.206Z,23.43
2018-02-24T10:30:49.638Z,22.47
2018-02-24T10:33:17.142Z,22.77
2018-02-24T10:35:44.648Z,21.13
2018-02-24T10:38:12.083Z,42.63
2018-02-24T10:40:39.584Z,24.83
2018-02-24T10:43:07.122Z,23.17
2018-02-24T10:45:34.556Z,22.17
2018-02-24T10:48:02.011Z,23.17
2018-02-24T10:50:29.504Z,21.63
2018-02-24T10:52:56.952Z,22.00
2018-02-24T10:55:24.516Z,23.13
2018-02-24T10:57:51.994Z,24.83
2018-02-24T11:00:19.437Z,22.47
2018-02-24T11:02:46.987Z,22.63
2018-02-24T11:05:14.508Z,21.00
2018-02-24T11:07:41.947Z,23.33
2018-02-24T11:12:36.403Z,20.33
2018-02-24T11:15:03.860Z,21.90
2018-02-24T11:17:31.443Z,19.70
2018-02-24T11:19:58.909Z,19.73
2018-02-24T11:22:26.347Z,18.70
2018-02-24T11:27:20.774Z,20.27
2018-02-24T11:29:48.225Z,20.60
2018-02-24T11:32:15.683Z,51.93
2018-02-24T11:34:43.250Z,24.20
2018-02-24T11:37:10.691Z,21.43
2018-02-24T11:42:08.086Z,20.42
2018-02-24T11:44:35.532Z,19.43
2018-02-24T11:47:02.980Z,15.60
2018-02-24T11:49:30.432Z,16.00
2018-02-24T12:04:12.978Z,14.55
2018-02-24T12:06:40.472Z,16.47
2018-02-24T12:09:08.168Z,15.83
2018-02-24T12:11:35.691Z,15.73
2018-02-24T12:14:03.159Z,11.13
2018-02-24T12:16:30.613Z,9.60
2018-02-24T12:18:58.063Z,8.93
2018-02-24T12:21:25.491Z,8.20
2018-02-24T12:23:52.937Z,8.00
2018-02-24T12:26:20.363Z,9.60
2018-02-24T13:47:30.615Z,25.05
2018-02-24T13:49:58.072Z,24.23
2018-02-24T13:52:25.514Z,29.57
2018-02-24T13:54:52.996Z,22.30
2018-02-24T13:57:20.464Z,18.67
2018-02-24T13:59:47.910Z,16.73
2018-02-24T14:02:15.386Z,22.70
2018-02-24T14:04:42.830Z,19.07
2018-02-24T14:07:10.287Z,21.70
2018-02-24T14:09:37.756Z,19.70
2018-02-24T14:12:05.208Z,18.10
2018-02-24T14:14:32.648Z,17.83
2018-02-24T14:17:00.112Z,20.90
2018-02-24T14:19:27.564Z,17.63
2018-02-24T14:21:55.003Z,18.13
2018-02-24T14:24:22.444Z,21.20
2018-02-24T14:26:49.885Z,19.47
2018-02-24T14:29:17.399Z,16.23
2018-02-24T14:31:44.837Z,16.43
2018-02-24T14:34:12.283Z,14.17
2018-02-24T14:36:40.031Z,17.23
2018-02-24T14:39:07.507Z,14.37
2018-02-24T14:41:35.079Z,15.17
2018-02-24T14:44:02.515Z,16.80
2018-02-24T14:46:30.019Z,15.73
2018-02-24T14:48:57.509Z,14.80
2018-02-24T14:51:25.123Z,13.03
2018-02-24T14:53:52.611Z,15.13
2018-02-24T14:56:20.057Z,15.13
2018-02-24T14:58:47.506Z,13.50
2018-02-24T15:01:14.938Z,14.47
2018-02-24T15:03:42.394Z,15.15
2018-02-24T15:06:09.834Z,16.33
2018-02-24T15:08:37.262Z,14.63
2018-02-24T15:11:04.707Z,13.83
2018-02-24T15:13:32.148Z,13.77
2018-02-24T15:15:59.584Z,15.27
2018-02-24T15:18:27.044Z,15.63
2018-02-24T15:20:54.480Z,15.73
2018-02-24T15:23:21.964Z,14.30
2018-02-24T15:25:49.431Z,15.10
2018-02-24T15:28:16.867Z,13.17
2018-02-24T15:30:44.461Z,16.40
2018-02-24T15:33:11.913Z,14.70
2018-02-24T15:35:39.359Z,16.20
2018-02-24T15:38:06.831Z,17.93
2018-02-24T15:40:34.330Z,15.30
2018-02-24T15:43:01.769Z,13.77
2018-02-24T15:45:29.307Z,13.30
2018-02-24T15:47:56.864Z,13.90
2018-02-24T15:50:24.291Z,13.23
2018-02-24T15:52:51.923Z,11.60
2018-02-24T15:55:19.369Z,10.87
2018-02-24T15:57:46.794Z,13.10
2018-02-24T16:00:14.225Z,13.57
2018-02-24T16:02:41.668Z,16.07
2018-02-24T16:05:09.090Z,9.40
2018-02-24T16:07:36.620Z,13.67
2018-02-24T16:10:04.080Z,13.57
2018-02-24T16:12:31.506Z,13.57
2018-02-24T16:14:59.048Z,9.50
2018-02-24T16:17:26.552Z,10.63
2018-02-24T16:19:54.010Z,9.73
2018-02-24T16:22:21.457Z,10.13
2018-02-24T16:24:48.899Z,8.70
2018-02-24T16:27:16.348Z,15.27
2018-02-24T16:29:44.051Z,11.30
2018-02-24T16:32:11.491Z,10.70
2018-02-24T16:34:38.924Z,7.80
2018-02-24T16:37:06.352Z,10.23
2018-02-24T16:39:33.872Z,11.03
2018-02-24T16:42:01.303Z,13.60
2018-02-24T16:44:28.794Z,8.43
2018-02-24T16:46:56.229Z,11.23
2018-02-24T16:49:23.761Z,8.70
2018-02-24T16:51:51.187Z,10.87
2018-02-24T16:54:18.738Z,18.40
2018-02-24T16:56:46.177Z,18.63
2018-02-24T16:59:13.743Z,10.53
2018-02-24T17:01:41.509Z,8.83
2018-02-24T17:04:08.952Z,11.37
2018-02-24T17:06:36.420Z,12.20
2018-02-24T17:09:03.881Z,10.13
2018-02-24T17:11:31.332Z,10.00
2018-02-24T17:13:58.767Z,10.77
2018-02-24T17:16:26.256Z,10.30
2018-02-24T17:18:53.775Z,8.40
2018-02-24T17:21:21.204Z,11.10
2018-02-24T17:23:48.752Z,18.70
2018-02-24T17:26:16.288Z,8.90
2018-02-24T17:28:43.749Z,8.50
2018-02-24T17:31:11.203Z,10.20
2018-02-24T17:33:38.703Z,8.80
2018-02-24T17:36:06.199Z,11.10
2018-02-24T17:38:33.653Z,9.27
2018-02-24T17:41:01.095Z,9.47
2018-02-24T17:43:28.527Z,12.87
2018-02-24T17:45:55.967Z,80.40
2018-02-24T17:48:23.404Z,98.40
2018-02-24T17:50:50.962Z,103.07
2018-02-24T17:53:18.413Z,85.87
2018-02-24T17:55:45.842Z,64.20
2018-02-24T17:58:13.292Z,60.87
2018-02-24T18:00:40.734Z,47.77
2018-02-24T18:03:08.182Z,41.90
2018-02-24T18:05:35.621Z,26.90
2018-02-24T18:08:03.072Z,20.47
2018-02-24T18:10:30.512Z,21.90
2018-02-24T18:12:57.976Z,19.87
2018-02-24T18:15:25.516Z,17.33
2018-02-24T18:17:52.952Z,19.30
2018-02-24T18:20:21.224Z,22.73
2018-02-24T18:22:48.672Z,24.37
2018-02-24T18:25:16.160Z,17.67
2018-02-24T18:27:43.712Z,17.17
2018-02-24T18:30:11.203Z,18.03
2018-02-24T18:32:38.639Z,16.87
2018-02-24T18:35:06.075Z,17.97
2018-02-24T18:37:33.533Z,19.67
2018-02-24T18:40:00.975Z,23.17
2018-02-24T18:42:28.411Z,15.60
2018-02-24T18:44:55.863Z,16.47
2018-02-24T18:47:23.379Z,14.70
2018-02-24T18:49:50.821Z,15.63
2018-02-24T18:52:18.315Z,14.63
2018-02-24T18:54:45.845Z,16.73
2018-02-24T18:57:13.288Z,14.70
2018-02-24T18:59:40.786Z,13.27
2018-02-24T19:02:08.220Z,16.10
2018-02-24T19:04:35.660Z,15.83
2018-02-24T19:07:03.117Z,15.00
2018-02-24T19:09:30.554Z,14.90
2018-02-24T19:11:58.436Z,13.20
2018-02-24T19:14:25.940Z,16.70
2018-02-24T19:16:53.335Z,14.43
2018-02-24T19:19:20.847Z,15.52
2018-02-24T19:21:48.290Z,13.13
2018-02-24T19:24:15.729Z,8.50
2018-02-24T19:26:43.236Z,8.37
2018-02-24T19:29:10.700Z,8.10
2018-02-24T19:31:38.147Z,8.30
2018-02-24T19:34:05.608Z,10.50
2018-02-24T19:36:33.063Z,9.90
2018-02-24T19:39:00.492Z,7.80
2018-02-24T19:41:27.937Z,7.10
2018-02-24T19:43:55.463Z,10.10
2018-02-24T19:46:22.878Z,10.57
2018-02-24T19:48:50.312Z,9.23
2018-02-24T19:51:17.767Z,8.80
2018-02-24T19:53:45.208Z,9.13
2018-02-24T19:56:12.662Z,7.20
2018-02-24T19:58:40.123Z,7.73
2018-02-24T20:01:07.565Z,7.60
2018-02-24T20:03:35.105Z,9.37
2018-02-24T20:06:02.578Z,8.27
2018-02-24T20:08:30.024Z,7.30
2018-02-24T20:10:57.482Z,7.43
2018-02-24T20:13:24.934Z,8.43
2018-02-24T20:15:52.399Z,7.30
2018-02-24T20:18:19.854Z,8.40
2018-02-24T20:20:47.320Z,7.23
2018-02-24T20:23:14.760Z,7.67
2018-02-24T20:25:42.215Z,6.37
2018-02-24T20:28:09.679Z,8.03
2018-02-24T20:30:37.133Z,7.33
2018-02-24T20:33:04.574Z,6.37
2018-02-24T20:35:32.300Z,6.10
2018-02-24T20:37:59.824Z,8.93
2018-02-24T20:40:27.469Z,7.73
2018-02-24T20:42:54.931Z,10.10
2018-02-24T20:45:22.372Z,10.60
2018-02-24T20:47:49.827Z,12.57
2018-02-24T20:50:17.282Z,8.53
2018-02-24T20:52:44.731Z,6.63
2018-02-24T20:55:12.187Z,7.10
2018-02-24T20:57:39.633Z,9.00
2018-02-24T21:00:07.097Z,8.80
2018-02-24T21:02:34.531Z,7.03
2018-02-24T21:05:01.983Z,8.93
2018-02-24T21:07:29.426Z,8.13
2018-02-24T21:09:56.917Z,9.67
2018-02-24T21:12:24.343Z,8.70
2018-02-24T21:14:51.796Z,9.20
2018-02-24T21:17:19.222Z,9.00
2018-02-24T21:19:46.670Z,5.60
2018-02-24T21:22:14.114Z,8.33
2018-02-24T21:24:41.567Z,7.27
2018-02-24T21:27:09.020Z,7.93
2018-02-24T21:29:36.680Z,6.93
2018-02-24T21:32:04.107Z,8.20
2018-02-24T21:34:31.562Z,6.33
2018-02-24T21:36:59.004Z,6.40
2018-02-24T21:39:26.450Z,8.17
2018-02-24T21:41:53.913Z,7.17
2018-02-24T21:44:21.362Z,7.30
2018-02-24T21:46:48.808Z,9.30
2018-02-24T21:49:16.261Z,6.20
2018-02-24T21:51:43.708Z,8.37
2018-02-24T21:54:11.255Z,5.80
2018-02-24T21:56:38.715Z,8.90
2018-02-24T21:59:06.163Z,8.30
2018-02-24T22:01:33.601Z,8.47
2018-02-24T22:04:01.201Z,8.60
2018-02-24T22:06:28.689Z,9.00
2018-02-24T22:08:56.135Z,9.70
2018-02-24T22:11:23.606Z,9.50
2018-02-24T22:13:51.043Z,8.20
2018-02-24T22:16:18.487Z,8.17
2018-02-24T22:18:46.030Z,10.33
2018-02-24T22:21:13.500Z,11.80
2018-02-24T22:23:40.926Z,9.97
2018-02-24T22:26:08.369Z,7.33
2018-02-24T22:28:35.808Z,9.57
2018-02-24T22:31:03.248Z,9.20
2018-02-24T22:33:30.716Z,8.60
2018-02-24T22:35:58.157Z,9.00
2018-02-24T22:38:25.594Z,10.90
2018-02-24T22:40:53.373Z,11.83
2018-02-24T22:43:20.827Z,8.37
2018-02-24T22:45:48.276Z,11.93
2018-02-24T22:48:21.329Z,7.57
2018-02-24T22:50:48.781Z,14.17
2018-02-24T22:53:16.217Z,10.03
2018-02-24T22:55:43.677Z,10.00
2018-02-24T22:58:11.110Z,11.10
2018-02-24T23:00:38.547Z,12.77
2018-02-24T23:03:05.993Z,11.60
2018-02-24T23:05:33.503Z,8.10
2018-02-24T23:08:00.935Z,12.20
2018-02-24T23:10:28.433Z,14.27
2018-02-24T23:12:55.876Z,11.87
2018-02-24T23:15:23.318Z,12.80
2018-02-24T23:17:50.772Z,13.57
2018-02-24T23:20:18.242Z,11.80
2018-02-24T23:22:45.686Z,11.87
2018-02-24T23:25:13.127Z,13.53
2018-02-24T23:27:40.561Z,14.67
2018-02-24T23:30:07.996Z,11.47
2018-02-24T23:32:35.455Z,12.70
2018-02-24T23:35:02.888Z,13.60
2018-02-24T23:37:30.335Z,13.80
2018-02-24T23:39:57.793Z,12.13
2018-02-24T23:42:25.236Z,16.20
2018-02-24T23:44:52.687Z,10.40
2018-02-24T23:47:20.141Z,10.67
2018-02-24T23:49:47.671Z,11.10
2018-02-24T23:52:15.112Z,14.07
2018-02-24T23:54:42.554Z,11.67
2018-02-24T23:57:10.110Z,11.87
2018-02-24T23:59:37.611Z,17.37
